Time;durP1;ratioP1;P1;durP2;ratioP2;P2;SDS_P1;SDS_P2;PMS_P1;PMS_P2;Temp;Humidity;BMP_temperature;BMP_pressure;BME280_temperature;BME280_humidity;BME280_pressure;Samples;Min_cycle;Max_cycle;Signal;HPM_P1;HPM_P2
2022/04/20 00:01:15;724104.00;2.41;1249.06;16481.00;0.05;29.18;;;;;14.40;1.00;;;;;;2284679;60;1202;-86
2022/04/20 00:03:42;753681.00;2.51;1300.46;17132.00;0.06;30.30;;;;;14.40;1.00;;;;;;2284810;60;1999;-88
2022/04/20 00:06:10;812912.00;2.71;1403.65;7906.00;0.03;14.32;;;;;14.40;1.00;;;;;;2284711;60;1718;-87
2022/04/20 00:08:37;814939.00;2.72;1407.19;44362.00;0.15;77.43;;;;;14.30;1.00;;;;;;2284533;60;1486;-85
2022/04/20 00:11:04;1000315.00;3.33;1733.03;39968.00;0.13;69.83;;;;;14.70;1.00;;;;;;2284685;60;1593;-86
2022/04/20 00:13:32;1027775.00;3.43;1781.73;30585.00;0.10;53.60;;;;;14.20;1.00;;;;;;2284727;60;1151;-87
2022/04/20 00:16:00;811238.00;2.70;1400.73;65506.00;0.22;113.99;;;;;14.40;1.00;;;;;;2284714;60;1423;-86
2022/04/20 00:18:27;746534.00;2.49;1288.03;34615.00;0.12;60.57;;;;;14.40;1.00;;;;;;2284646;60;1611;-86
2022/04/20 00:20:54;1081876.00;3.61;1878.04;26409.00;0.09;46.37;;;;;14.20;1.00;;;;;;2284860;60;1001;-87
2022/04/20 00:23:21;786757.00;2.62;1358.04;36774.00;0.12;64.31;;;;;14.20;1.00;;;;;;2284795;60;1394;-85
2022/04/20 00:25:48;756114.00;2.52;1304.69;0.00;0.00;0.62;;;;;14.50;1.00;;;;;;2284717;60;2002;-86
2022/04/20 00:28:15;720090.00;2.40;1242.09;11251.00;0.04;20.12;;;;;14.60;1.00;;;;;;2284728;60;1007;-88
2022/04/20 00:30:43;831767.00;2.77;1436.58;45519.00;0.15;79.44;;;;;14.30;1.00;;;;;;2284742;60;1378;-87
2022/04/20 00:33:10;530313.00;1.77;914.03;32256.00;0.11;56.49;;;;;14.00;1.00;;;;;;2284718;60;1164;-88
2022/04/20 00:35:37;775581.00;2.59;1338.57;31357.00;0.10;54.93;;;;;14.00;1.00;;;;;;2284843;60;1146;-87
2022/04/20 00:38:04;806773.00;2.69;1392.94;34572.00;0.12;60.50;;;;;14.30;1.00;;;;;;2284823;60;1109;-87
2022/04/20 00:40:31;798168.00;2.66;1377.93;5958.00;0.02;10.95;;;;;14.10;1.00;;;;;;2284725;60;1292;-87
2022/04/20 00:42:58;739627.00;2.47;1276.03;9414.00;0.03;16.93;;;;;14.50;1.00;;;;;;2284621;60;1332;-87
2022/04/20 00:45:28;442318.00;1.47;762.57;0.00;0.00;0.62;;;;;14.90;1.00;;;;;;2284605;60;1993;-88
2022/04/20 00:47:59;998209.00;3.33;1729.30;22878.00;0.08;40.25;;;;;15.00;1.00;;;;;;2284633;60;1350;-87
2022/04/20 00:50:26;792057.00;2.64;1367.27;58853.00;0.20;102.49;;;;;14.60;1.00;;;;;;2284706;60;1410;-86
2022/04/20 00:52:53;784046.00;2.61;1353.31;1765.00;0.01;3.68;;;;;14.30;1.00;;;;;;2284299;60;1136;-86
2022/04/20 00:55:20;766990.00;2.56;1323.61;13171.00;0.04;23.44;;;;;14.10;1.00;;;;;;2284652;60;1430;-88
2022/04/20 00:57:47;842423.00;2.81;1455.21;58357.00;0.19;101.64;;;;;14.30;1.00;;;;;;2284640;60;1426;-87
2022/04/20 01:00:15;769059.00;2.56;1327.21;28902.00;0.10;50.68;;;;;14.10;1.00;;;;;;2284659;60;1359;-87
2022/04/20 01:02:42;614684.00;2.05;1059.58;13097.00;0.04;23.31;;;;;13.90;1.00;;;;;;2284749;60;986;-88
2022/04/20 01:05:10;698552.00;2.33;1204.73;11472.00;0.04;20.50;;;;;13.90;1.00;;;;;;2284658;60;1927;-87
2022/04/20 01:07:40;877076.00;2.92;1515.89;0.00;0.00;0.62;;;;;13.70;1.00;;;;;;2284584;60;1074;-87
2022/04/20 01:10:08;796395.00;2.65;1374.84;79349.00;0.26;137.91;;;;;13.50;1.00;;;;;;2284462;60;1484;-86
2022/04/20 01:12:35;659518.00;2.20;1137.11;33138.00;0.11;58.01;;;;;13.10;1.00;;;;;;2284586;60;991;-88
2022/04/20 01:15:03;704872.00;2.35;1215.69;9505.00;0.03;17.09;;;;;12.80;1.00;;;;;;2284392;60;1524;-86
2022/04/20 01:17:30;884945.00;2.95;1529.69;80010.00;0.27;139.05;;;;;12.40;1.00;;;;;;2284491;60;1056;-87
2022/04/20 01:19:57;660417.00;2.20;1138.66;36979.00;0.12;64.66;;;;;12.30;1.00;;;;;;2284307;61;1449;-86
2022/04/20 01:22:25;1028967.00;3.43;1783.84;86260.00;0.29;149.85;;;;;12.20;1.00;;;;;;2284468;60;1027;-87
2022/04/20 01:24:52;991307.00;3.30;1717.08;9757.00;0.03;17.53;;;;;12.20;1.00;;;;;;2284536;60;1919;-86
2022/04/20 01:27:20;824625.00;2.75;1424.10;17945.00;0.06;31.71;;;;;12.40;1.00;;;;;;2284616;60;1527;-87
2022/04/20 01:29:48;951372.00;3.17;1646.53;36518.00;0.12;63.86;;;;;12.50;1.00;;;;;;2284338;60;1475;-86
2022/04/20 01:39:42;1038194.00;3.46;1800.24;9261.00;0.03;16.67;;;;;10.20;1.00;;;;;;2278502;61;1333;-86
2022/04/20 01:42:09;1161522.00;3.87;2020.80;3769.00;0.01;7.15;;;;;10.40;1.00;;;;;;2276349;61;1030;-86
2022/04/20 01:44:36;904864.00;3.02;1564.66;38222.00;0.13;66.81;;;;;11.00;1.00;;;;;;2276367;61;2012;-86
2022/04/20 01:47:03;748259.00;2.49;1291.03;26935.00;0.09;47.28;;;;;11.80;1.00;;;;;;2276367;61;1739;-88
2022/04/20 01:49:30;600225.00;2.00;1034.61;12159.00;0.04;21.69;;;;;12.00;1.00;;;;;;2276412;61;1287;-91
2022/04/20 01:51:57;745475.00;2.48;1286.19;20091.00;0.07;35.43;;;;;12.40;1.00;;;;;;2276461;61;1105;-86
2022/04/20 01:54:24;742105.00;2.47;1280.33;15867.00;0.05;28.11;;;;;12.70;1.00;;;;;;2276392;61;1111;-88
2022/04/20 01:56:53;807162.00;2.69;1393.62;43604.00;0.15;76.12;;;;;12.90;1.00;;;;;;2276443;61;881;-88
2022/04/20 01:59:20;1046259.00;3.49;1814.58;0.00;0.00;0.62;;;;;13.20;1.00;;;;;;2276380;61;1393;-88
2022/04/20 02:04:32;146343.00;0.49;253.50;0.00;0.00;0.62;;;;;13.90;1.00;;;;;;2276265;61;1974;-87
2022/04/20 02:06:59;575544.00;1.92;992.01;19292.00;0.06;34.04;;;;;14.20;1.00;;;;;;2276248;61;1604;-88
2022/04/20 02:09:26;734816.00;2.45;1267.67;29087.00;0.10;51.00;;;;;14.30;1.00;;;;;;2276335;61;1347;-88
2022/04/20 02:11:54;814395.00;2.71;1406.24;9369.00;0.03;16.86;;;;;14.20;1.00;;;;;;2276342;61;1044;-87
2022/04/20 02:14:21;916804.00;3.06;1585.65;12543.00;0.04;22.35;;;;;14.40;1.00;;;;;;2276246;61;1026;-89
2022/04/20 02:16:48;596585.00;1.99;1028.32;0.00;0.00;0.62;;;;;14.50;1.00;;;;;;2276397;61;1143;-88
2022/04/20 02:19:15;589557.00;1.97;1016.19;4206.00;0.01;7.91;;;;;14.50;1.00;;;;;;2276352;61;1304;-88
2022/04/20 02:21:43;681634.00;2.27;1175.40;6491.00;0.02;11.87;;;;;13.80;1.00;;;;;;2276343;61;976;-86
2022/04/20 02:24:10;737118.00;2.46;1271.67;51499.00;0.17;89.78;;;;;13.00;1.00;;;;;;2276225;61;1108;-86
2022/04/20 02:26:37;780479.00;2.60;1347.10;36938.00;0.12;64.59;;;;;12.20;1.00;;;;;;2276185;61;1929;-87
2022/04/20 02:29:05;771346.00;2.57;1331.20;42145.00;0.14;73.60;;;;;11.50;1.00;;;;;;2276169;61;1455;-87
2022/04/20 02:31:32;956292.00;3.19;1655.21;42711.00;0.14;74.58;;;;;11.00;1.00;;;;;;2276032;61;1446;-86
2022/04/20 02:34:00;800905.00;2.67;1382.70;43173.00;0.14;75.38;;;;;10.80;1.00;;;;;;2276019;61;1640;-86
2022/04/20 02:36:28;862298.00;2.87;1490.00;0.00;0.00;0.62;;;;;10.60;1.00;;;;;;2276205;61;1063;-87
2022/04/20 02:38:55;734288.00;2.45;1266.75;32089.00;0.11;56.20;;;;;10.20;1.00;;;;;;2276126;61;1609;-86
2022/04/20 02:41:22;1143013.00;3.81;1987.52;30507.00;0.10;53.46;;;;;9.80;1.00;;;;;;2276161;61;1026;-88
2022/04/20 02:43:50;859358.00;2.86;1484.85;0.00;0.00;0.62;;;;;10.10;1.00;;;;;;2276267;61;1541;-85
2022/04/20 02:46:18;889637.00;2.97;1537.93;58093.00;0.19;101.18;;;;;10.70;1.00;;;;;;2276148;61;1985;-87
2022/04/20 02:48:45;979136.00;3.26;1695.55;74895.00;0.25;130.22;;;;;11.40;1.00;;;;;;2276105;61;1379;-86
2022/04/20 02:51:12;663305.00;2.21;1143.66;52111.00;0.17;90.84;;;;;11.70;1.00;;;;;;2276186;61;1131;-86
2022/04/20 02:53:39;566308.00;1.89;976.08;18892.00;0.06;33.35;;;;;11.10;1.00;;;;;;2276254;61;1012;-86
2022/04/20 02:56:06;571044.00;1.90;984.25;39563.00;0.13;69.13;;;;;10.60;1.00;;;;;;2276171;61;1462;-86
2022/04/20 02:58:33;745384.00;2.48;1286.03;77863.00;0.26;135.35;;;;;10.80;1.00;;;;;;2276249;61;1365;-87
2022/04/20 03:01:00;871256.00;2.90;1505.69;88984.00;0.30;154.55;;;;;11.10;1.00;;;;;;2276042;61;1047;-88
2022/04/20 03:03:29;740992.00;2.47;1278.40;4648.00;0.02;8.68;;;;;10.80;1.00;;;;;;2283258;40;3694;-87
2022/04/20 03:05:56;992258.00;3.31;1718.76;19351.00;0.06;34.15;;;;;9.70;1.00;;;;;;2284209;60;2012;-88
2022/04/20 03:08:24;424602.00;1.42;732.10;0.00;0.00;0.62;;;;;9.40;1.00;;;;;;2287527;55;3776;-87
2022/04/20 03:10:51;670953.00;2.24;1156.90;0.00;0.00;0.62;;;;;9.60;1.00;;;;;;2287950;56;3770;-90
2022/04/20 03:13:18;633402.00;2.11;1091.93;19352.00;0.06;34.15;;;;;9.30;1.00;;;;;;2284236;60;1106;-88
2022/04/20 03:18:13;939340.00;3.13;1625.32;23820.00;0.08;41.88;;;;;9.30;1.00;;;;;;2277632;61;1423;-88
2022/04/20 03:20:42;624685.00;2.08;1076.86;36314.00;0.12;63.51;;;;;9.10;1.00;;;;;;2276083;61;1556;-88
2022/04/20 03:23:09;811996.00;2.71;1402.05;33039.00;0.11;57.84;;;;;9.20;1.00;;;;;;2276176;61;956;-88
2022/04/20 03:25:36;664449.00;2.21;1145.64;12770.00;0.04;22.75;;;;;9.50;1.00;;;;;;2283952;55;3815;-87
2022/04/20 03:28:03;533143.00;1.78;918.91;15822.00;0.05;28.03;;;;;9.30;1.00;;;;;;2284854;61;1102;-88
2022/04/20 03:30:29;386717.00;1.29;666.97;0.00;0.00;0.62;;;;;8.80;1.00;;;;;;2284793;61;1302;-87
2022/04/20 03:32:56;597031.00;1.99;1029.09;14793.00;0.05;26.25;;;;;8.70;1.00;;;;;;2284853;61;821;-89
2022/04/20 03:35:24;634017.00;2.11;1092.99;0.00;0.00;0.62;;;;;8.50;1.00;;;;;;2284895;61;926;-87
2022/04/20 03:37:52;895260.00;2.98;1547.80;31741.00;0.11;55.60;;;;;8.70;1.00;;;;;;2290945;39;3618;-87
2022/04/20 03:40:19;962215.00;3.21;1665.66;33114.00;0.11;57.97;;;;;8.80;1.00;;;;;;2275961;61;1585;-87
2022/04/20 03:42:46;747603.00;2.49;1289.89;16240.00;0.05;28.76;;;;;8.30;1.00;;;;;;2289918;40;3808;-87
2022/04/20 03:45:13;868522.00;2.90;1500.90;16931.00;0.06;29.96;;;;;7.80;1.00;;;;;;2295427;40;3629;-88
2022/04/20 03:47:40;967535.00;3.23;1675.06;16552.00;0.06;29.30;;;;;7.80;1.00;;;;;;2276717;61;923;-86
2022/04/20 03:50:09;780132.00;2.60;1346.50;29741.00;0.10;52.13;;;;;7.70;1.00;;;;;;2276722;61;1286;-87
2022/04/20 03:52:38;753680.00;2.51;1300.46;0.00;0.00;0.62;;;;;7.40;1.00;;;;;;2297875;40;3606;-87
2022/04/20 03:55:08;823915.00;2.75;1422.86;45783.00;0.15;79.89;;;;;7.50;1.00;;;;;;2285181;60;1181;-87
2022/04/20 03:57:35;614745.00;2.05;1059.69;36787.00;0.12;64.33;;;;;7.70;1.00;;;;;;2284853;60;1109;-88
2022/04/20 04:00:02;597473.00;1.99;1029.86;40462.00;0.13;70.69;;;;;7.80;1.00;;;;;;2284802;60;1434;-88
2022/04/20 04:02:29;538889.00;1.80;928.81;0.00;0.00;0.62;;;;;8.10;1.00;;;;;;2284912;60;1753;-88
2022/04/20 04:04:56;621741.00;2.07;1071.77;12509.00;0.04;22.30;;;;;7.90;1.00;;;;;;2284793;60;2004;-88
2022/04/20 04:09:52;1063962.00;3.55;1846.09;0.00;0.00;0.62;;;;;8.10;1.00;;;;;;2278150;60;1386;-89
2022/04/20 04:12:24;413289.00;1.38;712.65;0.00;0.00;0.62;;;;;8.10;1.00;;;;;;2321218;39;3600;-89
2022/04/20 04:14:51;1150845.00;3.84;2001.60;12068.00;0.04;21.53;;;;;7.80;1.00;;;;;;2286451;60;1321;-87
2022/04/20 04:17:18;615194.00;2.05;1060.46;0.00;0.00;0.62;;;;;8.20;1.00;;;;;;2284797;60;1098;-87
2022/04/20 04:24:45;949783.00;3.17;1643.73;0.00;0.00;0.62;;;;;7.40;1.00;;;;;;2290261;40;3499;-87
2022/04/20 04:29:41;939656.00;3.13;1625.88;0.00;0.00;0.62;;;;;7.30;1.00;;;;;;2274478;61;1418;-87
2022/04/20 04:32:09;605310.00;2.02;1043.39;0.00;0.00;0.62;;;;;7.30;1.00;;;;;;2272361;61;1066;-89
2022/04/20 04:34:36;343950.00;1.15;593.46;0.00;0.00;0.62;;;;;7.40;1.00;;;;;;2279324;55;3813;-87
2022/04/20 04:37:04;569671.00;1.90;981.88;59418.00;0.20;103.47;;;;;7.60;1.00;;;;;;2298478;40;3797;-86
2022/04/20 04:39:31;772298.00;2.57;1332.85;28640.00;0.10;50.23;;;;;7.90;1.00;;;;;;2282532;40;3603;-89
2022/04/20 04:44:34;413374.00;1.38;712.80;0.00;0.00;0.62;;;;;7.90;1.00;;;;;;2279849;56;1652;-88
2022/04/20 04:52:11;718078.00;2.39;1238.60;0.00;0.00;0.62;;;;;7.40;1.00;;;;;;2300450;39;3482;-87
2022/04/20 04:57:12;342275.00;1.14;590.58;0.00;0.00;0.62;;;;;7.80;1.00;;;;;;2277687;61;1394;-90
2022/04/20 05:32:31;377024.00;1.26;650.31;0.00;0.00;0.62;;;;;9.20;1.00;;;;;;2314787;56;3636;-86
2022/04/20 05:42:54;48095.00;0.16;83.89;0.00;0.00;0.62;;;;;13.20;1.00;;;;;;2286380;40;3901;-88
2022/04/20 05:50:22;613706.00;2.05;1057.89;0.00;0.00;0.62;;;;;15.90;1.00;;;;;;2287429;55;3754;-87
2022/04/20 06:00:23;311692.00;1.04;538.02;0.00;0.00;0.62;;;;;18.70;1.00;;;;;;2306649;39;2877;-85
2022/04/20 06:02:50;510059.00;1.70;879.14;0.00;0.00;0.62;;;;;18.90;1.00;;;;;;2285023;55;3794;-86
2022/04/20 06:20:36;519217.00;1.73;894.92;85032.00;0.28;147.73;;;;;18.70;1.00;;;;;;2281083;56;1709;-86
2022/04/20 06:23:03;580159.00;1.93;999.97;121177.00;0.40;210.11;;;;;19.00;1.00;;;;;;2276220;61;1521;-87
2022/04/20 06:25:30;330439.00;1.10;570.24;95544.00;0.32;165.88;;;;;18.90;1.00;;;;;;2276068;61;2004;-87
2022/04/20 06:27:57;368875.00;1.23;636.30;91048.00;0.30;158.12;;;;;18.50;1.00;;;;;;2275950;61;1563;-87
2022/04/20 06:30:24;326185.00;1.09;562.93;83918.00;0.28;145.80;;;;;18.40;1.00;;;;;;2276234;61;1266;-88
2022/04/20 06:32:51;368003.00;1.23;634.80;115175.00;0.38;199.76;;;;;19.20;1.00;;;;;;2276367;61;1044;-89
2022/04/20 06:35:18;506044.00;1.69;872.23;92567.00;0.31;160.74;;;;;18.20;1.00;;;;;;2276165;61;1544;-88
2022/04/20 06:37:47;261430.00;0.87;451.61;88172.00;0.29;153.15;;;;;18.20;1.00;;;;;;2276247;61;1098;-89
2022/04/20 06:40:14;213038.00;0.71;368.36;79024.00;0.26;137.35;;;;;18.20;1.00;;;;;;2276128;61;1725;-89
2022/04/20 06:42:41;373736.00;1.25;644.66;83686.00;0.28;145.40;;;;;17.70;1.00;;;;;;2276042;61;901;-88
2022/04/20 06:45:09;313703.00;1.05;541.47;83305.00;0.28;144.75;;;;;17.90;1.00;;;;;;2275952;61;1638;-88
2022/04/20 06:50:10;331546.00;1.11;572.14;85814.00;0.29;149.08;;;;;18.40;1.00;;;;;;2277885;61;1740;-87
2022/04/20 07:05:30;107632.00;0.36;186.74;0.00;0.00;0.62;;;;;20.50;1.00;;;;;;2285598;55;3661;-87
2022/04/20 07:07:57;151504.00;0.51;262.40;0.00;0.00;0.62;;;;;21.40;1.00;;;;;;2287832;40;3571;-86
2022/04/20 07:12:55;216697.00;0.72;374.66;0.00;0.00;0.62;;;;;21.10;1.00;;;;;;2273750;61;1396;-88
2022/04/20 07:15:22;144535.00;0.48;250.39;0.00;0.00;0.62;;;;;22.00;1.00;;;;;;2285848;40;3670;-86
2022/04/20 07:20:26;76883.00;0.26;133.65;0.00;0.00;0.62;;;;;20.70;1.00;;;;;;2278963;61;1390;-87
2022/04/20 07:25:21;743076.00;2.48;1282.02;80558.00;0.27;140.00;;;;;20.90;1.00;;;;;;2282441;61;1411;-87
2022/04/20 07:32:47;284217.00;0.95;490.79;84056.00;0.28;146.04;;;;;20.30;1.00;;;;;;2283469;39;3589;-88
2022/04/20 07:35:14;338884.00;1.13;584.76;81602.00;0.27;141.80;;;;;19.50;1.00;;;;;;2281580;61;1074;-88
2022/04/20 07:37:41;290654.00;0.97;501.85;79031.00;0.26;137.36;;;;;19.60;1.00;;;;;;2280877;60;1567;-88
2022/04/20 07:40:08;185937.00;0.62;321.71;85081.00;0.28;147.81;;;;;19.40;1.00;;;;;;2280873;60;1291;-87
2022/04/20 07:45:11;509251.00;1.70;877.75;81353.00;0.27;141.37;;;;;18.50;1.00;;;;;;2015389;59;1741;-87
2022/04/20 07:47:38;118288304.00;394.29;67044428.00;79117.00;0.26;137.51;;;;;18.60;1.00;;;;;;2272643;61;1992;-87
2022/04/20 07:50:20;287711.00;0.96;496.79;86333.00;0.29;149.98;;;;;18.70;1.00;;;;;;2272624;61;1641;-87
2022/04/20 07:55:17;942533.00;3.14;1630.95;0.00;0.00;0.62;;;;;18.40;1.00;;;;;;2278143;61;1383;-87
2022/04/20 07:57:44;514573.00;1.72;886.92;20143.00;0.07;35.52;;;;;18.70;1.00;;;;;;2276655;61;1522;-87
2022/04/20 08:00:13;533139.00;1.78;918.90;7381.00;0.02;13.41;;;;;18.50;1.00;;;;;;2276739;61;1271;-86
2022/04/20 08:02:40;513255.00;1.71;884.65;0.00;0.00;0.62;;;;;19.60;1.00;;;;;;2276815;61;1015;-85
2022/04/20 08:05:10;627902.00;2.09;1082.42;4205.00;0.01;7.91;;;;;20.00;1.00;;;;;;2276874;61;1015;-87
2022/04/20 08:07:37;867855.00;2.89;1499.73;78846.00;0.26;137.04;;;;;18.90;1.00;;;;;;2276581;61;2011;-87
2022/04/20 08:10:06;1091573.00;3.64;1895.36;115428.00;0.38;200.20;;;;;19.10;1.00;;;;;;2276562;61;1275;-86
2022/04/20 08:12:36;620000.00;2.07;1068.77;92899.00;0.31;161.31;;;;;19.70;1.00;;;;;;2276804;61;1014;-86
2022/04/20 08:15:05;615580.00;2.05;1061.13;83364.00;0.28;144.85;;;;;18.30;1.00;;;;;;2276586;61;1169;-86
2022/04/20 08:17:32;196364.00;0.65;339.66;80278.00;0.27;139.52;;;;;17.40;1.00;;;;;;2276596;61;1331;-87
2022/04/20 08:19:59;305810.00;1.02;527.91;77982.00;0.26;135.55;;;;;17.10;1.00;;;;;;2276722;61;1383;-89
2022/04/20 08:22:28;192116.00;0.64;332.35;85163.00;0.28;147.95;;;;;16.90;1.00;;;;;;2276660;61;1023;-87
2022/04/20 08:29:55;987770.00;3.29;1710.82;79901.00;0.27;138.87;;;;;18.90;1.00;;;;;;1970329;56;3593;-85
2022/04/20 08:34:51;324522.00;1.08;560.07;82196.00;0.27;142.83;;;;;19.50;1.00;;;;;;2274196;61;1337;-85
2022/04/20 08:37:18;264768.00;0.88;457.35;92135.00;0.31;159.99;;;;;19.60;1.00;;;;;;2272277;61;1463;-86
2022/04/20 08:39:46;229751.00;0.77;397.12;81861.00;0.27;142.25;;;;;18.70;1.00;;;;;;2272610;61;1504;-86
2022/04/20 08:42:17;229437.00;0.76;396.58;67972.00;0.23;118.26;;;;;17.30;1.00;;;;;;2279579;55;3728;-87
2022/04/20 08:44:48;239390.00;0.80;413.70;71479.00;0.24;124.32;;;;;17.20;1.00;;;;;;2296130;40;3771;-88
2022/04/20 08:47:20;548819.00;1.83;945.92;107644.00;0.36;186.76;;;;;17.50;1.00;;;;;;2296969;39;3597;-89
2022/04/20 08:49:50;1145326.00;3.82;1991.67;118249.00;0.39;205.06;;;;;17.80;1.00;;;;;;2283909;55;3783;-87
2022/04/20 08:55:07;505804.00;1.69;871.82;27749.00;0.09;48.69;;;;;17.40;1.00;;;;;;2276581;61;660;-89
2022/04/20 08:57:36;770255.00;2.57;1329.30;21654.00;0.07;38.13;;;;;17.40;1.00;;;;;;2276463;61;1163;-86
2022/04/20 09:00:05;844757.00;2.82;1459.29;104225.00;0.35;180.86;;;;;16.60;1.00;;;;;;2276412;61;1358;-88
2022/04/20 09:07:33;2167971.00;7.23;3975.12;97569.00;0.33;169.38;;;;;16.90;1.00;;;;;;2277832;61;1978;-86
2022/04/20 09:10:01;771151.00;2.57;1330.86;19490.00;0.06;34.39;;;;;17.00;1.00;;;;;;2276227;61;1464;-86
2022/04/20 09:39:46;264528.00;0.88;456.93;87985.00;0.29;152.83;;;;;14.40;1.00;;;;;;2293597;56;236227;-86
2022/04/20 09:42:14;183093.00;0.61;316.82;88385.00;0.29;153.52;;;;;14.20;1.00;;;;;;2276324;61;1155;-84
2022/04/20 09:44:55;228330.00;0.76;394.68;91894.00;0.31;159.58;;;;;13.70;1.00;;;;;;2276397;61;1894;-85
2022/04/20 09:52:38;397000.00;1.32;684.65;78008.00;0.26;135.60;;;;;14.10;1.00;;;;;;2270040;61;1191;-85
2022/04/20 09:55:08;285949.00;0.95;493.77;90537.00;0.30;157.23;;;;;14.40;1.00;;;;;;2267657;61;1604;-84
2022/04/20 09:57:37;444465.00;1.48;766.26;79349.00;0.26;137.91;;;;;14.00;1.00;;;;;;2268213;61;1708;-85
2022/04/20 10:00:10;257243.00;0.86;444.41;84113.00;0.28;146.14;;;;;14.20;1.00;;;;;;2313794;41;3642;-85
2022/04/20 10:02:46;496858.00;1.66;856.41;102474.00;0.34;177.84;;;;;14.20;1.00;;;;;;2279600;61;1727;-84
2022/04/20 10:05:14;528366.00;1.76;910.68;151482.00;0.50;262.36;;;;;14.00;1.00;;;;;;2280208;61;1250;-84
2022/04/20 10:07:41;288276.00;0.96;497.77;85889.00;0.29;149.21;;;;;14.00;1.00;;;;;;2280377;61;1992;-85
2022/04/20 10:12:39;531759.00;1.77;916.52;75621.00;0.25;131.47;;;;;13.60;1.00;;;;;;2273386;61;1408;-84
2022/04/20 10:20:07;316057.00;1.05;545.52;0.00;0.00;0.62;;;;;13.60;1.00;;;;;;2278232;61;1641;-87
2022/04/20 10:22:34;15056.00;0.05;26.71;0.00;0.00;0.62;;;;;14.00;1.00;;;;;;2276023;61;1030;-85
2022/04/20 10:42:27;522702.00;1.74;900.92;0.00;0.00;0.62;;;;;14.30;1.00;;;;;;2310722;39;3503;-89
2022/04/20 10:45:00;200285.00;0.67;346.41;0.00;0.00;0.62;;;;;14.40;1.00;;;;;;2277281;61;1427;-86
2022/04/20 10:47:28;0.00;0.00;0.62;0.00;0.00;0.62;;;;;14.30;1.00;;;;;;2277804;55;3730;-86
2022/04/20 10:50:12;169930.00;0.57;294.15;0.00;0.00;0.62;;;;;13.90;1.00;;;;;;2275234;61;1281;-85
2022/04/20 10:52:41;64845.00;0.22;112.85;0.00;0.00;0.62;;;;;14.50;1.00;;;;;;2275536;61;1139;-84
2022/04/20 10:55:09;141950.00;0.47;245.93;0.00;0.00;0.62;;;;;14.70;1.00;;;;;;2275033;61;1791;-85
2022/04/20 10:57:39;34788.00;0.12;60.87;0.00;0.00;0.62;;;;;15.30;1.00;;;;;;2274791;61;1029;-85
2022/04/20 11:05:14;146510.00;0.49;253.79;0.00;0.00;0.62;;;;;14.80;1.00;;;;;;2278647;61;1407;-84
2022/04/20 11:18:39;141472.00;0.47;245.11;0.00;0.00;0.62;;;;;14.40;1.00;;;;;;2314588;40;3824;-85
2022/04/20 11:21:19;97484.00;0.32;169.23;0.00;0.00;0.62;;;;;14.70;1.00;;;;;;2276516;61;1013;-84
2022/04/20 11:23:50;120128.00;0.40;208.30;0.00;0.00;0.62;;;;;14.50;1.00;;;;;;2276268;61;1640;-83
2022/04/20 11:26:21;158469.00;0.53;274.40;0.00;0.00;0.62;;;;;14.20;1.00;;;;;;2286173;40;3608;-87
2022/04/20 11:31:16;920501.00;3.07;1592.16;20236.00;0.07;35.68;;;;;15.10;1.00;;;;;;2282519;60;1327;-87
2022/04/20 11:36:16;841639.00;2.81;1453.84;38476.00;0.13;67.25;;;;;14.60;1.00;;;;;;2283079;61;1319;-87
2022/04/20 11:38:45;1041655.00;3.47;1806.39;94624.00;0.32;164.29;;;;;14.40;1.00;;;;;;2289711;40;3777;-84
2022/04/20 11:48:55;719180.00;2.40;1240.51;0.00;0.00;0.62;;;;;15.10;1.00;;;;;;2279009;61;1938;-90
2022/04/20 11:51:25;70968.00;0.24;123.43;0.00;0.00;0.62;;;;;15.40;1.00;;;;;;2347214;56;4146;-89
2022/04/20 11:53:53;845214.00;2.82;1460.09;0.00;0.00;0.62;;;;;15.50;1.00;;;;;;2287032;61;1457;-88
2022/04/20 11:58:53;971581.00;3.24;1682.20;36631.00;0.12;64.06;;;;;14.90;1.00;;;;;;2279282;61;1322;-88
2022/04/20 12:01:25;671772.00;2.24;1158.32;40706.00;0.14;71.11;;;;;15.00;1.00;;;;;;2272791;61;930;-92
2022/04/20 12:08:56;796691.00;2.66;1375.35;30301.00;0.10;53.10;;;;;15.10;1.00;;;;;;2275079;61;1942;-90
2022/04/20 12:26:42;688526.00;2.30;1187.35;0.00;0.00;0.62;;;;;15.40;1.00;;;;;;2279321;61;1882;-87
2022/04/20 12:39:19;1328182.00;4.43;2323.78;153880.00;0.51;266.49;;;;;15.70;1.00;;;;;;2181409;55;3550;31
2022/04/20 13:46:37;530168.00;1.77;913.78;0.00;0.00;0.62;;;;;16.70;1.00;;;;;;2277224;61;1403;-85
2022/04/20 13:54:04;893394.00;2.98;1544.52;0.00;0.00;0.62;;;;;17.00;1.00;;;;;;2510205;39;3357;31
2022/04/20 14:13:57;365124.00;1.22;629.86;0.00;0.00;0.62;;;;;16.50;1.00;;;;;;2277735;61;1403;-86
2022/04/20 14:43:44;704383.00;2.35;1214.84;0.00;0.00;0.62;;;;;16.90;1.00;;;;;;2379441;55;3448;-87
2022/04/20 16:51:08;678602.00;2.26;1170.15;54757.00;0.18;95.41;;;;;15.60;1.00;;;;;;2329283;39;3734;-88
2022/04/20 18:35:59;608654.00;2.03;1049.16;0.00;0.00;0.62;;;;;14.50;1.00;;;;;;2339573;55;3635;-84
2022/04/20 20:30:13;775505.00;2.59;1338.44;0.00;0.00;0.62;;;;;16.10;1.00;;;;;;2514671;55;3587;31
2022/04/20 20:48:04;1048098.00;3.49;1817.85;0.00;0.00;0.62;;;;;15.80;1.00;;;;;;2509611;55;3545;31
2022/04/20 20:55:30;977757.00;3.26;1693.12;0.00;0.00;0.62;;;;;15.10;1.00;;;;;;2512667;55;3583;31
2022/04/20 21:05:28;669779.00;2.23;1154.87;0.00;0.00;0.62;;;;;15.50;1.00;;;;;;2512781;40;3426;31
2022/04/20 21:20:28;1098783.00;3.66;1908.25;0.00;0.00;0.62;;;;;14.90;1.00;;;;;;2095486;55;3574;-87
2022/04/20 21:22:55;427615.00;1.43;737.28;0.00;0.00;0.62;;;;;14.60;1.00;;;;;;2275999;61;1716;-88
2022/04/20 21:25:22;103645.00;0.35;179.86;0.00;0.00;0.62;;;;;14.10;1.00;;;;;;2276449;61;1676;-87
2022/04/20 21:27:49;49033.00;0.16;85.51;0.00;0.00;0.62;;;;;13.10;1.00;;;;;;2276446;61;1930;-87
2022/04/20 21:30:16;69861.00;0.23;121.52;0.00;0.00;0.62;;;;;12.80;1.00;;;;;;2280350;55;3842;-88
2022/04/20 21:32:43;255289.00;0.85;441.05;0.00;0.00;0.62;;;;;12.70;1.00;;;;;;2280466;60;1631;-90
2022/04/20 21:35:10;41447.00;0.14;72.39;0.00;0.00;0.62;;;;;13.10;1.00;;;;;;2280395;60;1736;-89
2022/04/20 21:40:08;326671.00;1.09;563.76;0.00;0.00;0.62;;;;;14.20;1.00;;;;;;2293368;55;3705;-90
2022/04/20 21:45:06;216505.00;0.72;374.33;0.00;0.00;0.62;;;;;14.00;1.00;;;;;;2277703;61;1401;-88
2022/04/20 21:47:33;21862.00;0.07;38.49;0.00;0.00;0.62;;;;;14.10;1.00;;;;;;2276265;61;1917;-88
2022/04/20 21:52:30;112288.00;0.37;194.78;0.00;0.00;0.62;;;;;14.00;1.00;;;;;;2277788;61;1404;-88
2022/04/20 21:54:58;8116.00;0.03;14.68;0.00;0.00;0.62;;;;;13.70;1.00;;;;;;2276254;61;1259;-88
2022/04/20 21:57:26;100029.00;0.33;173.62;0.00;0.00;0.62;;;;;13.60;1.00;;;;;;2276214;61;896;-87
2022/04/20 21:59:54;80713.00;0.27;140.27;0.00;0.00;0.62;;;;;13.80;1.00;;;;;;2276193;61;1754;-89
2022/04/20 22:10:19;87251.00;0.29;151.56;0.00;0.00;0.62;;;;;13.60;1.00;;;;;;2278071;61;1414;-88
2022/04/20 22:12:48;235202.00;0.78;406.50;0.00;0.00;0.62;;;;;13.60;1.00;;;;;;2276221;61;1099;-89
2022/04/20 22:15:18;69221.00;0.23;120.41;0.00;0.00;0.62;;;;;13.50;1.00;;;;;;2276363;61;903;-88
2022/04/20 22:17:45;24342.00;0.08;42.79;0.00;0.00;0.62;;;;;13.50;1.00;;;;;;2276167;61;991;-88
2022/04/20 22:22:45;383022.00;1.28;660.62;0.00;0.00;0.62;;;;;13.60;1.00;;;;;;2278382;61;1421;-89
2022/04/20 22:25:15;35099.00;0.12;61.41;0.00;0.00;0.62;;;;;13.50;1.00;;;;;;2276248;61;1025;-87
2022/04/20 22:27:42;0.00;0.00;0.62;0.00;0.00;0.62;;;;;13.70;1.00;;;;;;2276294;61;2000;-89
2022/04/20 22:30:11;61297.00;0.20;106.72;0.00;0.00;0.62;;;;;13.40;1.00;;;;;;2275973;61;1489;-88
2022/04/20 22:32:38;56559.00;0.19;98.53;0.00;0.00;0.62;;;;;13.60;1.00;;;;;;2276150;61;1032;-87
2022/04/20 22:35:06;118541.00;0.40;205.57;0.00;0.00;0.62;;;;;14.00;1.00;;;;;;2276049;61;1110;-88
2022/04/20 22:37:33;35960.00;0.12;62.90;0.00;0.00;0.62;;;;;14.20;1.00;;;;;;2276235;61;1250;-89
2022/04/20 22:40:00;58916.00;0.20;102.60;0.00;0.00;0.62;;;;;14.20;1.00;;;;;;2276199;61;1294;-89
2022/04/20 22:42:27;0.00;0.00;0.62;0.00;0.00;0.62;;;;;13.80;1.00;;;;;;2276302;61;1009;-89